Terminal Aerodrome Forecast
Issued by NWS Billings, MT

Home | Current Version | Previous Version | Text Only | Print | Product List | Glossary On
Versions: 1 2 3 4 5 6 7 8 9 10 11 12 13 14 15 16
000
FTUS45 KBYZ 241007 AAA
TAFMLS
TAF AMD
KMLS 241007Z 2410/2506 22005KT 6SM BR VCSH FEW015 BKN090
      TEMPO 2410/2412 BKN015
     FM241200 27011KT P6SM FEW100 BKN200
     FM241600 27012G20KT P6SM FEW070 SCT200
     FM250200 26009KT P6SM SCT100=

USA.gov is the U.S. government's official web portal to all federal, state and local government web resources and services.